^^
Saratoga-Weather Station Historical Data
Daily Summary for May 20, 2022 Units:  English    Metric   Both
Daily Weekly Monthly Yearly Custom
  High: Low: Average:
Temperature: 82.2 °F 56.8 °F 69.4 °F
Dew Point: 70 °F 52.3 °F 62.1 °F
Humidity: 90% 55% 78%
Wind Speed: 16.1mph 0mph 2.4mph
Wind Gust: 18mph - -
Wind- - SSW
Pressure: 30.2 in 29.9 in -
Precipitation: 0.21 in    
Historical Graphs
 
 
Tabular Data for May 20, 2022
Time Temperature Dew Point Pressure Wind Wind Speed Wind Gust Humidity Rainfall Rate (Hourly) solar
00:01 67.3 °F 61.9 °F 30.1 in Calm     83% 0 in 0 W/m2
00:06 67.3 °F 61.9 °F 30.1 in Calm     83% 0 in 0 W/m2
00:11 67.3 °F 61.9 °F 30.1 in Calm     83% 0 in 0 W/m2
00:16 67.1 °F 61.7 °F 30.1 in Calm     83% 0 in 0 W/m2
00:21 67.1 °F 61.7 °F 30.1 in Calm     83% 0 in 0 W/m2
00:26 66.9 °F 61.5 °F 30.1 in Calm     83% 0 in 0 W/m2
00:31 66.9 °F 61.9 °F 30.1 in Calm     84% 0 in 0 W/m2
00:36 66.9 °F 61.9 °F 30.1 in Calm     84% 0 in 0 W/m2
00:41 66.9 °F 61.9 °F 30.1 in Calm     84% 0 in 0 W/m2
00:46 66.7 °F 61.7 °F 30.1 in Calm     84% 0 in 0 W/m2
00:51 66.7 °F 61.7 °F 30.1 in Calm     84% 0 in 0 W/m2
00:56 66.7 °F 61.7 °F 30.1 in Calm     84% 0 in 0 W/m2
01:01 66.7 °F 61.7 °F 30.1 in Calm     84% 0 in 0 W/m2
01:06 66.7 °F 61.7 °F 30.1 in Calm     84% 0 in 0 W/m2
01:11 66.7 °F 61.7 °F 30.1 in Calm     84% 0 in 0 W/m2
01:16 66.7 °F 61.7 °F 30.1 in Calm     84% 0 in 0 W/m2
01:21 66.7 °F 61.7 °F 30.1 in Calm     84% 0 in 0 W/m2
01:26 66.7 °F 61.7 °F 30.1 in Calm     84% 0 in 0 W/m2
01:31 66.7 °F 61.7 °F 30.1 in Calm     84% 0 in 0 W/m2
01:36 66.7 °F 61.7 °F 30.1 in Calm     84% 0 in 0 W/m2
01:41 66.7 °F 61.7 °F 30.1 in Calm     84% 0 in 0 W/m2
01:46 66.7 °F 61.7 °F 30.1 in SSE 0.9 mph 1 mph 84% 0 in 0 W/m2
01:51 66.7 °F 61.7 °F 30.1 in SSE 2 mph 2 mph 84% 0 in 0 W/m2
01:56 66.7 °F 61.7 °F 30.1 in Calm   2 mph 84% 0 in 0 W/m2
02:01 66.7 °F 61.7 °F 30.1 in WSW 0.9 mph 2 mph 84% 0 in 0 W/m2
02:06 66.7 °F 61.7 °F 30.1 in Calm     84% 0 in 0 W/m2
02:11 66.7 °F 61.7 °F 30.1 in Calm   1 mph 84% 0 in 0 W/m2
02:16 66.7 °F 61.7 °F 30.1 in WSW 0.9 mph 2 mph 84% 0 in 0 W/m2
02:21 66.7 °F 61.7 °F 30.1 in Calm   1 mph 84% 0 in 0 W/m2
02:26 66.6 °F 61.5 °F 30.1 in Calm   1 mph 84% 0 in 0 W/m2
02:31 66.6 °F 61.5 °F 30.1 in Calm     84% 0 in 0 W/m2
02:36 66.6 °F 61.5 °F 30.1 in East 0.9 mph 3 mph 84% 0 in 0 W/m2
02:41 66.6 °F 61.5 °F 30.1 in East 0.9 mph 2 mph 84% 0 in 0 W/m2
02:46 66.6 °F 61.5 °F 30.1 in Calm   3 mph 84% 0 in 0 W/m2
02:51 66.4 °F 61.3 °F 30.1 in Calm   1 mph 84% 0 in 0 W/m2
02:56 66.2 °F 61.2 °F 30.1 in Calm     84% 0 in 0 W/m2
03:01 65.8 °F 60.8 °F 30.1 in Calm   1 mph 84% 0 in 0 W/m2
03:06 65.7 °F 61 °F 30.1 in Calm     85% 0 in 0 W/m2
03:11 65.5 °F 60.8 °F 30.1 in Calm     85% 0 in 0 W/m2
03:16 65.1 °F 60.4 °F 30.1 in Calm     85% 0 in 0 W/m2
03:21 64.9 °F 60.6 °F 30.1 in Calm     86% 0 in 0 W/m2
03:26 64.8 °F 60.4 °F 30.1 in Calm     86% 0 in 0 W/m2
03:31 64.8 °F 60.8 °F 30.1 in Calm     87% 0 in 0 W/m2
03:36 64.8 °F 60.8 °F 30.1 in ESE 0.9 mph 2 mph 87% 0 in 0 W/m2
03:41 64.8 °F 60.8 °F 30.1 in Calm   1 mph 87% 0 in 0 W/m2
03:46 64.8 °F 60.8 °F 30.1 in WSW 0.9 mph 2 mph 87% 0 in 0 W/m2
03:51 64.8 °F 60.8 °F 30.1 in Calm     87% 0 in 0 W/m2
03:56 64.8 °F 60.8 °F 30.1 in Calm   2 mph 87% 0 in 0 W/m2
04:01 64.8 °F 60.8 °F 30.1 in Calm   1 mph 87% 0 in 0 W/m2
04:06 64.6 °F 60.6 °F 30.1 in Calm     87% 0 in 0 W/m2
04:11 64.6 °F 60.6 °F 30.1 in SW 2 mph 2 mph 87% 0 in 0 W/m2
04:16 64.6 °F 60.6 °F 30.1 in ENE 2 mph 2 mph 87% 0 in 0 W/m2
04:21 64.4 °F 60.4 °F 30.1 in Calm   2 mph 87% 0 in 0 W/m2
04:26 64.4 °F 60.8 °F 30.1 in Calm   1 mph 88% 0 in 0 W/m2
04:31 64.4 °F 60.4 °F 30.1 in Calm   2 mph 87% 0 in 0 W/m2
04:36 64.2 °F 60.6 °F 30.1 in ENE 0.9 mph 1 mph 88% 0 in 0 W/m2
04:41 64.2 °F 60.3 °F 30.1 in Calm   1 mph 87% 0 in 0 W/m2
04:46 64.2 °F 60.3 °F 30.1 in ESE 0.9 mph 4 mph 87% 0 in 0 W/m2
04:51 64.2 °F 60.3 °F 30.1 in Calm     87% 0 in 0 W/m2
04:56 64.2 °F 60.3 °F 30.1 in Calm   1 mph 87% 0 in 0 W/m2
05:01 64 °F 60.1 °F 30.1 in Calm     87% 0 in 0 W/m2
05:06 63.9 °F 59.9 °F 30.1 in Calm     87% 0 in 0 W/m2
05:12 63.9 °F 59.9 °F 30.1 in ESE 0.9 mph 1 mph 87% 0 in 0 W/m2
05:17 63.5 °F 59.9 °F 30.1 in Calm   1 mph 88% 0 in 0 W/m2
05:22 63.3 °F 59.7 °F 30.1 in Calm     88% 0 in 0 W/m2
05:27 63.1 °F 59.5 °F 30.1 in Calm     88% 0 in 0 W/m2
05:32 63 °F 59.4 °F 30.1 in Calm     88% 0 in 0 W/m2
05:37 63 °F 59.4 °F 30.1 in Calm     88% 0 in 0 W/m2
05:42 62.8 °F 59.2 °F 30.1 in Calm     88% 0 in 0 W/m2
05:47 62.4 °F 59.2 °F 30.1 in Calm   1 mph 89% 0 in 0 W/m2
05:52 62.4 °F 59.2 °F 30.1 in NE 0.9 mph 2 mph 89% 0 in 0 W/m2
05:57 62.4 °F 59.2 °F 30.1 in SSE 0.9 mph 2 mph 89% 0 in 0 W/m2
06:02 62.4 °F 59.2 °F 30.1 in Calm     89% 0 in 7 W/m2
06:07 62.4 °F 59.2 °F 30.1 in Calm   2 mph 89% 0 in 9 W/m2
06:12 62.4 °F 59.2 °F 30.1 in Calm     89% 0 in 12 W/m2
06:17 62.4 °F 59.2 °F 30.1 in Calm     89% 0 in 16 W/m2
06:22 62.2 °F 59 °F 30.1 in Calm     89% 0 in 18 W/m2
06:27 62.2 °F 59.2 °F 30.1 in Calm     90% 0 in 19 W/m2
06:32 62.4 °F 59.4 °F 30.1 in Calm     90% 0 in 23 W/m2
06:37 62.4 °F 59.4 °F 30.1 in Calm     90% 0 in 25 W/m2
06:42 62.4 °F 59.4 °F 30.1 in Calm     90% 0 in 28 W/m2
06:47 62.4 °F 59.4 °F 30.1 in Calm     90% 0 in 33 W/m2
06:52 62.4 °F 59.4 °F 30.1 in Calm     90% 0 in 39 W/m2
06:57 62.6 °F 59.5 °F 30.1 in SSE 0.9 mph 2 mph 90% 0 in 46 W/m2
07:02 62.8 °F 59.7 °F 30.1 in Calm     90% 0 in 49 W/m2
07:07 62.8 °F 59.7 °F 30.1 in Calm   2 mph 90% 0 in 51 W/m2
07:12 63 °F 59.9 °F 30.1 in SE 0.9 mph 1 mph 90% 0 in 81 W/m2
07:17 63.3 °F 60.3 °F 30.1 in Calm   1 mph 90% 0 in 76 W/m2
07:22 63.7 °F 60.4 °F 30.1 in Calm   2 mph 89% 0 in 83 W/m2
07:27 64.2 °F 61 °F 30.1 in Calm     89% 0 in 111 W/m2
07:32 64.8 °F 61.2 °F 30.1 in Calm   1 mph 88% 0 in 134 W/m2
07:37 65.1 °F 60.8 °F 30.1 in North 0.9 mph 2 mph 86% 0 in 144 W/m2
07:42 65.7 °F 61.3 °F 30.1 in NE 0.9 mph 2 mph 86% 0 in 146 W/m2
07:47 66 °F 61.3 °F 30.1 in Calm   1 mph 85% 0 in 165 W/m2
07:52 66.6 °F 61.5 °F 30.1 in Calm     84% 0 in 181 W/m2
07:57 66.9 °F 61.9 °F 30.1 in Calm   3 mph 84% 0 in 169 W/m2
08:02 67.5 °F 62.1 °F 30.1 in Calm   2 mph 83% 0 in 193 W/m2
08:07 67.6 °F 62.2 °F 30.1 in East 0.9 mph 2 mph 83% 0 in 207 W/m2
08:12 67.8 °F 62.1 °F 30.1 in East 2.9 mph 4 mph 82% 0 in 102 W/m2
08:17 67.8 °F 62.1 °F 30.1 in ESE 0.9 mph 3 mph 82% 0 in 88 W/m2
08:22 67.8 °F 62.1 °F 30.1 in ENE 2 mph 4 mph 82% 0 in 86 W/m2
08:27 68.2 °F 62.4 °F 30.1 in East 2 mph 4 mph 82% 0 in 83 W/m2
08:32 68.4 °F 62.6 °F 30.1 in Calm     82% 0 in 81 W/m2
08:37 68.7 °F 62.6 °F 30.1 in Calm   3 mph 81% 0 in 86 W/m2
08:42 68.7 °F 62.6 °F 30.1 in Calm   2 mph 81% 0 in 90 W/m2
08:47 68.9 °F 62.4 °F 30.1 in NE 0.9 mph 2 mph 80% 0 in 91 W/m2
08:52 69.1 °F 62.6 °F 30.1 in North 0.9 mph 2 mph 80% 0 in 95 W/m2
08:57 69.1 °F 63 °F 30.1 in NW 0.9 mph 2 mph 81% 0 in 95 W/m2
09:02 69.3 °F 62.8 °F 30.1 in NW 0.9 mph 2 mph 80% 0 in 100 W/m2
09:07 69.8 °F 63 °F 30.1 in Calm   4 mph 79% 0 in 102 W/m2
09:12 70 °F 63.1 °F 30.1 in ENE 2.9 mph 5 mph 79% 0 in 102 W/m2
09:17 70.2 °F 63.3 °F 30.1 in ESE 0.9 mph 4 mph 79% 0 in 113 W/m2
09:22 70.5 °F 63.7 °F 30.1 in East 2.9 mph 5 mph 79% 0 in 130 W/m2
09:27 70.9 °F 63.7 °F 30.1 in NNE 0.9 mph 5 mph 78% 0 in 141 W/m2
09:32 71.4 °F 63.9 °F 30.1 in ENE 2.9 mph 4 mph 77% 0 in 144 W/m2
09:37 71.4 °F 63.9 °F 30.1 in NE 2 mph 4 mph 77% 0 in 127 W/m2
09:42 71.6 °F 64 °F 30.1 in East 4.9 mph 6 mph 77% 0 in 114 W/m2
09:47 72 °F 64.4 °F 30.1 in ENE 0.9 mph 3 mph 77% 0 in 105 W/m2
09:52 72.3 °F 64.4 °F 30.1 in Calm   3 mph 76% 0 in 132 W/m2
09:57 72.9 °F 64.8 °F 30.1 in ENE 2.9 mph 4 mph 76% 0 in 95 W/m2
10:02 73.4 °F 64.6 °F 30.1 in North 2 mph 3 mph 74% 0 in 497 W/m2
10:07 74.1 °F 64.9 °F 30.1 in East 0.9 mph 3 mph 73% 0 in 538 W/m2
10:12 74.7 °F 64.2 °F 30.1 in NW 2 mph 5 mph 70% 0 in 545 W/m2
10:17 74.8 °F 63.1 °F 30.1 in WNW 2 mph 3 mph 67% 0 in 554 W/m2
10:22 75.2 °F 62.6 °F 30.1 in NW 2 mph 5 mph 65% 0 in 563 W/m2
10:27 75.6 °F 63 °F 30 in NW 4.9 mph 5 mph 65% 0 in 605 W/m2
10:32 75.9 °F 63.3 °F 30 in ENE 2 mph 3 mph 65% 0 in 619 W/m2
10:37 76.5 °F 63.3 °F 30 in WSW 6 mph 7 mph 64% 0 in 640 W/m2
10:42 76.8 °F 63.3 °F 30 in NW 2 mph 7 mph 63% 0 in 707 W/m2
10:47 76.8 °F 63.3 °F 30 in WNW 2 mph 3 mph 63% 0 in 666 W/m2
10:52 77.4 °F 63.3 °F 30 in SSE 0.9 mph 7 mph 62% 0 in 297 W/m2
10:57 77.2 °F 63.7 °F 30 in Calm   2 mph 63% 0 in 204 W/m2
11:02 76.8 °F 63.3 °F 30 in East 2 mph 8 mph 63% 0 in 165 W/m2
11:07 76.5 °F 63.9 °F 30 in SW 0.9 mph 4 mph 65% 0 in 158 W/m2
11:12 76.3 °F 63.1 °F 30 in SE 2 mph 8 mph 64% 0 in 197 W/m2
11:17 75.9 °F 63.7 °F 30 in ENE 0.9 mph 3 mph 66% 0 in 248 W/m2
11:22 76.1 °F 63.5 °F 30 in SW 0.9 mph 4 mph 65% 0 in 443 W/m2
11:27 76.5 °F 63.9 °F 30 in Calm   2 mph 65% 0 in 548 W/m2
11:32 76.6 °F 63.5 °F 30 in ENE 2 mph 2 mph 64% 0 in 185 W/m2
11:37 76.5 °F 63.3 °F 30 in ENE 2 mph 2 mph 64% 0 in 120 W/m2
11:42 76.1 °F 63 °F 30 in ESE 0.9 mph 1 mph 64% 0 in 132 W/m2
11:47 76.1 °F 64.8 °F 30 in SE 0.9 mph 1 mph 68% 0 in 232 W/m2
11:52 76.6 °F 64.9 °F 30 in West 2 mph 3 mph 67% 0 in 863 W/m2
11:57 77.4 °F 64.2 °F 30 in NNE 0.9 mph 3 mph 64% 0 in 911 W/m2
12:02 78.3 °F 64.6 °F 30 in WSW 0.9 mph 3 mph 63% 0 in 969 W/m2
12:07 78.4 °F 64.8 °F 30 in WNW 2.9 mph 3 mph 63% 0 in 886 W/m2
12:12 79 °F 64.8 °F 30 in NNW 0.9 mph 3 mph 62% 0 in 715 W/m2
12:17 79.5 °F 64.4 °F 30 in East 2.9 mph 4 mph 60% 0 in 722 W/m2
12:22 79.9 °F 65.3 °F 30 in East 0.9 mph 3 mph 61% 0 in 779 W/m2
12:27 80.2 °F 64.6 °F 30 in ENE 2.9 mph 5 mph 59% 0 in 768 W/m2
12:32 80.4 °F 64.2 °F 30 in North 0.9 mph 4 mph 58% 0 in 721 W/m2
12:37 81 °F 64.2 °F 30 in ESE 2.9 mph 7 mph 57% 0 in 807 W/m2
12:43 81 °F 64.2 °F 30 in Calm   4 mph 57% 0 in 751 W/m2
12:48 81.1 °F 64.4 °F 30 in Calm   7 mph 57% 0 in 837 W/m2
12:53 81.3 °F 64 °F 30 in Calm   2 mph 56% 0 in 763 W/m2
12:58 81.7 °F 64.4 °F 30 in West 2.9 mph 6 mph 56% 0 in 519 W/m2
13:03 81.7 °F 64.4 °F 30 in NE 2.9 mph 4 mph 56% 0 in 422 W/m2
13:08 81.9 °F 64 °F 30 in NNE 0.9 mph 5 mph 55% 0 in 506 W/m2
13:13 81.9 °F 64.6 °F 30 in NE 0.9 mph 5 mph 56% 0 in 555 W/m2
13:18 82.2 °F 64.4 °F 30 in Calm   2 mph 55% 0 in 529 W/m2
13:23 82.2 °F 64.9 °F 30 in ESE 0.9 mph 6 mph 56% 0 in 199 W/m2
13:28 82 °F 64.8 °F 30 in West 2.9 mph 3 mph 56% 0 in 504 W/m2
13:33 81.9 °F 64.6 °F 30 in West 4 mph 6 mph 56% 0 in 462 W/m2
13:38 81.5 °F 63.9 °F 30 in WSW 2 mph 4 mph 55% 0 in 183 W/m2
13:43 81.1 °F 64.4 °F 30 in WSW 4 mph 8 mph 57% 0 in 70 W/m2
13:48 80.4 °F 64.8 °F 30 in WSW 4 mph 8 mph 59% 0 in 32 W/m2
13:53 79.2 °F 67.3 °F 30 in SE 2.9 mph 4 mph 67% 0.02 in 26 W/m2
13:58 77.2 °F 66.2 °F 29.9 in SSE 2 mph 4 mph 69% 0.02 in 65 W/m2
14:03 75.7 °F 67.6 °F 29.9 in SW 2.9 mph 3 mph 76% 0.02 in 155 W/m2
14:08 74.3 °F 68 °F 29.9 in WSW 2 mph 2 mph 81% 0.02 in 141 W/m2
14:13 73.4 °F 68.2 °F 30 in Calm   1 mph 84% 0.02 in 127 W/m2
14:18 73 °F 68 °F 29.9 in West 2 mph 2 mph 84% 0.02 in 83 W/m2
14:23 73 °F 66.9 °F 29.9 in NNE 0.9 mph 5 mph 81% 0.03 in 60 W/m2
14:28 73.2 °F 67.1 °F 29.9 in East 2.9 mph 3 mph 81% 0.03 in 33 W/m2
14:33 72.3 °F 66.2 °F 29.9 in WSW 2.9 mph 5 mph 81% 0.06 in 40 W/m2
14:38 71.6 °F 65.8 °F 29.9 in WNW 2.9 mph 5 mph 82% 0.06 in 54 W/m2
14:43 71.1 °F 66 °F 30 in SSW 0.9 mph 8 mph 84% 0.06 in 79 W/m2
14:48 70.5 °F 66.2 °F 30 in WSW 0.9 mph 4 mph 86% 0.06 in 151 W/m2
14:53 70.5 °F 66.4 °F 30 in NNE 0.9 mph 8 mph 87% 0.05 in 204 W/m2
14:58 70.7 °F 66.6 °F 30 in WSW 0.9 mph 4 mph 87% 0.04 in 223 W/m2
15:03 71.1 °F 67.3 °F 29.9 in West 2 mph 3 mph 88% 0.04 in 378 W/m2
15:08 71.6 °F 67.1 °F 29.9 in West 2 mph 4 mph 86% 0.04 in 336 W/m2
15:13 72.7 °F 67.8 °F 29.9 in Calm   3 mph 85% 0.04 in 789 W/m2
15:18 73.8 °F 68.4 °F 29.9 in West 0.9 mph 2 mph 83% 0.04 in 680 W/m2
15:23 74.5 °F 70 °F 29.9 in Calm     86% 0.03 in 919 W/m2
15:28 75.2 °F 69.3 °F 29.9 in NNW 2 mph 3 mph 82% 0.03 in 759 W/m2
15:33 75.7 °F 68.4 °F 29.9 in NW 2 mph 3 mph 78% 0 in 381 W/m2
15:38 76.5 °F 69.4 °F 29.9 in Calm   1 mph 79% 0 in 796 W/m2
15:43 77.2 °F 69.1 °F 29.9 in East 4 mph 4 mph 76% 0 in 775 W/m2
15:48 77.5 °F 69.4 °F 29.9 in ESE 4 mph 6 mph 76% 0 in 758 W/m2
15:53 77.7 °F 68.4 °F 29.9 in ESE 6.9 mph 7 mph 73% 0 in 733 W/m2
15:58 77.9 °F 68.2 °F 29.9 in NE 2 mph 4 mph 72% 0 in 710 W/m2
16:03 78.3 °F 68.9 °F 29.9 in Calm   3 mph 73% 0 in 721 W/m2
16:08 79 °F 68.7 °F 29.9 in Calm   4 mph 71% 0 in 717 W/m2
16:13 79.5 °F 68.5 °F 29.9 in NE 2 mph 8 mph 69% 0 in 691 W/m2
16:18 79.5 °F 68.9 °F 29.9 in East 2 mph 6 mph 70% 0 in 712 W/m2
16:23 79.9 °F 68 °F 29.9 in ESE 2 mph 3 mph 67% 0 in 689 W/m2
16:28 80.1 °F 67.3 °F 29.9 in West 2 mph 6 mph 65% 0 in 656 W/m2
16:33 80.2 °F 66.9 °F 29.9 in Calm   3 mph 64% 0 in 673 W/m2
16:38 80.4 °F 66.2 °F 29.9 in West 2 mph 2 mph 62% 0 in 668 W/m2
16:43 80.4 °F 65.3 °F 29.9 in West 2.9 mph 6 mph 60% 0 in 657 W/m2
16:48 80.4 °F 64.8 °F 29.9 in NW 2.9 mph 5 mph 59% 0 in 613 W/m2
16:53 80.4 °F 64.8 °F 29.9 in NW 2.9 mph 5 mph 59% 0 in 642 W/m2
16:58 81 °F 65.8 °F 29.9 in East 0.9 mph 4 mph 60% 0 in 631 W/m2
17:03 80.8 °F 64 °F 29.9 in NNW 0.9 mph 11 mph 57% 0 in 613 W/m2
17:08 80.8 °F 65.7 °F 29.9 in NNW 4 mph 10 mph 60% 0 in 606 W/m2
17:13 81.1 °F 64.9 °F 29.9 in NNE 2 mph 4 mph 58% 0 in 482 W/m2
17:18 81 °F 64.2 °F 29.9 in West 6.9 mph 10 mph 57% 0 in 482 W/m2
17:23 80.4 °F 64.2 °F 29.9 in NNE 4 mph 4 mph 58% 0 in 162 W/m2
17:28 79.9 °F 63.3 °F 29.9 in SSW 4.9 mph 11 mph 57% 0 in 186 W/m2
17:33 79.7 °F 63.7 °F 29.9 in ENE 4.9 mph 8 mph 58% 0 in 171 W/m2
17:38 79.5 °F 63.5 °F 29.9 in NW 4 mph 11 mph 58% 0 in 83 W/m2
17:43 79.3 °F 63.3 °F 29.9 in SW 0.9 mph 4 mph 58% 0 in 105 W/m2
17:48 79.2 °F 63.1 °F 29.9 in West 2.9 mph 11 mph 58% 0 in 97 W/m2
17:58 78.6 °F 63.1 °F 29.9 in NW 2 mph 7 mph 59% 0 in 32 W/m2
18:03 78.4 °F 63.3 °F 29.9 in ENE 2 mph 4 mph 60% 0 in 19 W/m2
18:08 78.3 °F 63.3 °F 29.9 in WNW 2.9 mph 8 mph 60% 0 in 7 W/m2
18:13 77.5 °F 65.3 °F 29.9 in WSW 4.9 mph 11 mph 66% 0.03 in 0 W/m2
18:18 74.7 °F 65.8 °F 30 in WNW 14.1 mph 18 mph 74% 0.1 in 5 W/m2
18:23 71.6 °F 64.8 °F 30 in West 6 mph 11 mph 79% 0.14 in 16 W/m2
18:28 69.3 °F 64.2 °F 30 in West 6 mph 15 mph 84% 0.15 in 40 W/m2
18:33 67.6 °F 63 °F 30 in WSW 2.9 mph 13 mph 85% 0.15 in 47 W/m2
18:38 66.7 °F 62.4 °F 30 in WSW 8.9 mph 12 mph 86% 0.15 in 165 W/m2
18:43 66.6 °F 63 °F 30 in West 6.9 mph 11 mph 88% 0.15 in 213 W/m2
18:48 66.4 °F 62.8 °F 30 in West 8.1 mph 13 mph 88% 0.15 in 185 W/m2
18:53 66.6 °F 63.1 °F 30 in NNW 4.9 mph 12 mph 89% 0.15 in 146 W/m2
18:58 66.6 °F 63 °F 30 in West 2 mph 11 mph 88% 0.15 in 204 W/m2
19:03 66.9 °F 63.3 °F 30 in West 10.1 mph 12 mph 88% 0.15 in 142 W/m2
19:08 66.9 °F 63.3 °F 30 in SW 8.1 mph 12 mph 88% 0.15 in 109 W/m2
19:13 67.1 °F 63.5 °F 30 in WNW 6.9 mph 10 mph 88% 0.11 in 72 W/m2
19:18 67.1 °F 63.5 °F 30 in West 8.1 mph 10 mph 88% 0.05 in 65 W/m2
19:23 67.3 °F 63.7 °F 30 in West 8.1 mph 10 mph 88% 0.01 in 130 W/m2
19:28 67.6 °F 64 °F 30 in NW 6 mph 13 mph 88% 0 in 69 W/m2
19:33 67.8 °F 63.9 °F 30 in West 6 mph 12 mph 87% 0 in 51 W/m2
19:38 67.8 °F 63.1 °F 30 in West 11 mph 13 mph 85% 0 in 74 W/m2
19:43 67.8 °F 62.8 °F 30 in West 8.1 mph 16 mph 84% 0 in 83 W/m2
19:48 68 °F 62.6 °F 30 in WNW 4 mph 12 mph 83% 0 in 77 W/m2
19:53 67.8 °F 62.1 °F 30 in WNW 6.9 mph 16 mph 82% 0 in 67 W/m2
19:58 67.6 °F 62.2 °F 30 in WNW 6.9 mph 10 mph 83% 0 in 53 W/m2
20:03 67.5 °F 62.1 °F 30 in West 4 mph 10 mph 83% 0 in 46 W/m2
20:08 66.9 °F 61.9 °F 30 in WNW 6.9 mph 9 mph 84% 0 in 46 W/m2
20:13 66.9 °F 61.9 °F 30 in West 2 mph 11 mph 84% 0 in 37 W/m2
20:18 66.7 °F 61.7 °F 30 in WSW 4 mph 13 mph 84% 0 in 39 W/m2
20:23 66.6 °F 61.2 °F 30 in WNW 8.9 mph 13 mph 83% 0 in 35 W/m2
20:28 66.6 °F 60.6 °F 30 in West 2.9 mph 11 mph 81% 0 in 32 W/m2
20:33 66.4 °F 60.4 °F 30 in West 2.9 mph 13 mph 81% 0 in 21 W/m2
20:38 66 °F 60.4 °F 30 in WSW 8.1 mph 11 mph 82% 0 in 21 W/m2
20:43 65.8 °F 60.3 °F 30 in WSW 6.9 mph 10 mph 82% 0 in 19 W/m2
20:48 65.7 °F 60.1 °F 30 in WSW 6.9 mph 11 mph 82% 0 in 16 W/m2
20:53 65.3 °F 59.7 °F 30 in West 6.9 mph 12 mph 82% 0 in 14 W/m2
20:58 65.1 °F 59.2 °F 30 in West 6 mph 10 mph 81% 0 in 16 W/m2
21:03 65.1 °F 59.2 °F 30 in West 6 mph 11 mph 81% 0 in 14 W/m2
21:08 64.9 °F 59 °F 30.1 in WSW 4 mph 7 mph 81% 0 in 11 W/m2
21:13 64.8 °F 59.2 °F 30.1 in WNW 2.9 mph 8 mph 82% 0 in 7 W/m2
21:18 64.4 °F 59.2 °F 30.1 in West 2.9 mph 7 mph 83% 0 in 5 W/m2
21:23 64 °F 58.8 °F 30.1 in SW 2.9 mph 10 mph 83% 0 in 0 W/m2
21:28 64 °F 58.5 °F 30.1 in West 6 mph 10 mph 82% 0 in 0 W/m2
21:33 63.9 °F 57.9 °F 30.1 in WNW 8.1 mph 12 mph 81% 0 in 0 W/m2
21:38 63.3 °F 56.7 °F 30.1 in WNW 16.1 mph 16 mph 79% 0 in 0 W/m2
21:43 63.1 °F 56.1 °F 30.1 in WNW 10.1 mph 14 mph 78% 0 in 0 W/m2
21:48 62.8 °F 55.8 °F 30.1 in NW 6 mph 14 mph 78% 0 in 0 W/m2
21:53 62.2 °F 55.2 °F 30.1 in WNW 10.1 mph 12 mph 78% 0 in 0 W/m2
21:58 61.9 °F 54.9 °F 30.1 in West 6.9 mph 11 mph 78% 0 in 0 W/m2
22:03 61.7 °F 55 °F 30.1 in West 6.9 mph 8 mph 79% 0 in 0 W/m2
22:08 61.3 °F 55 °F 30.1 in WSW 6 mph 9 mph 80% 0 in 0 W/m2
22:13 61.2 °F 54.9 °F 30.1 in SW 8.9 mph 9 mph 80% 0 in 0 W/m2
22:18 60.8 °F 54.9 °F 30.1 in WSW 8.9 mph 11 mph 81% 0 in 0 W/m2
22:23 60.4 °F 54.5 °F 30.1 in WNW 6.9 mph 10 mph 81% 0 in 0 W/m2
22:29 60.3 °F 54.3 °F 30.1 in WNW 8.1 mph 10 mph 81% 0 in 0 W/m2
22:34 60.1 °F 54.3 °F 30.1 in NNW 8.9 mph 12 mph 81% 0 in 0 W/m2
22:39 59.9 °F 54.1 °F 30.1 in WSW 6.9 mph 9 mph 81% 0 in 0 W/m2
22:44 59.7 °F 54.1 °F 30.1 in West 6.9 mph 10 mph 82% 0 in 0 W/m2
22:49 59.4 °F 53.8 °F 30.1 in West 6 mph 12 mph 82% 0 in 0 W/m2
22:54 59.4 °F 53.8 °F 30.1 in NW 8.9 mph 10 mph 82% 0 in 0 W/m2
22:59 59.4 °F 53.8 °F 30.1 in NW 8.1 mph 9 mph 82% 0 in 0 W/m2
23:04 59.2 °F 54 °F 30.1 in West 4 mph 10 mph 83% 0 in 0 W/m2
23:09 58.8 °F 53.6 °F 30.1 in West 6 mph 10 mph 83% 0 in 0 W/m2
23:14 58.6 °F 53.4 °F 30.1 in WSW 4.9 mph 9 mph 83% 0 in 0 W/m2
23:19 58.5 °F 53.6 °F 30.1 in WNW 4 mph 7 mph 84% 0 in 0 W/m2
23:24 58.3 °F 53.4 °F 30.1 in NW 8.1 mph 9 mph 84% 0 in 0 W/m2
23:29 58.1 °F 53.2 °F 30.1 in WSW 4 mph 10 mph 84% 0 in 0 W/m2
23:34 57.9 °F 53.1 °F 30.1 in NW 4 mph 8 mph 84% 0 in 0 W/m2
23:39 57.9 °F 53.1 °F 30.1 in SW 4.9 mph 10 mph 84% 0 in 0 W/m2
23:44 57.7 °F 52.9 °F 30.1 in SW 2.9 mph 9 mph 84% 0 in 0 W/m2
23:49 57.6 °F 52.7 °F 30.1 in West 2.9 mph 6 mph 84% 0 in 0 W/m2
23:54 57.2 °F 52.7 °F 30.1 in West 2 mph 9 mph 85% 0 in 0 W/m2
23:59 56.8 °F 52.3 °F 30.2 in West 2.9 mph 7 mph 85% 0 in 0 W/m2
Juneau County Weather
Compliments of Weather Underground - 4 mb